sensor_id;sensor_type;location;lat;lon;timestamp;P1;durP1;ratioP1;P2;durP2;ratioP2
18669;SDS011;9464;44.918;9.670;2022-09-27T00:01:44;1.70;;;0.83;;
18669;SDS011;9464;44.918;9.670;2022-09-27T00:04:12;0.83;;;0.83;;
18669;SDS011;9464;44.918;9.670;2022-09-27T00:06:41;2.30;;;1.10;;
18669;SDS011;9464;44.918;9.670;2022-09-27T00:09:09;2.97;;;1.43;;
18669;SDS011;9464;44.918;9.670;2022-09-27T00:11:38;2.50;;;1.40;;
18669;SDS011;9464;44.918;9.670;2022-09-27T00:14:08;6.83;;;4.67;;
18669;SDS011;9464;44.918;9.670;2022-09-27T00:16:40;7.73;;;5.57;;
18669;SDS011;9464;44.918;9.670;2022-09-27T00:19:13;8.53;;;5.80;;
18669;SDS011;9464;44.918;9.670;2022-09-27T00:21:43;8.87;;;5.77;;
18669;SDS011;9464;44.918;9.670;2022-09-27T00:24:13;8.20;;;5.93;;
18669;SDS011;9464;44.918;9.670;2022-09-27T00:26:44;10.10;;;6.33;;
18669;SDS011;9464;44.918;9.670;2022-09-27T00:29:13;12.53;;;8.00;;
18669;SDS011;9464;44.918;9.670;2022-09-27T00:31:43;10.27;;;7.50;;
18669;SDS011;9464;44.918;9.670;2022-09-27T00:34:15;16.27;;;11.13;;
18669;SDS011;9464;44.918;9.670;2022-09-27T00:36:46;14.63;;;9.80;;
18669;SDS011;9464;44.918;9.670;2022-09-27T00:39:15;14.53;;;10.57;;
18669;SDS011;9464;44.918;9.670;2022-09-27T00:41:44;14.90;;;10.80;;
18669;SDS011;9464;44.918;9.670;2022-09-27T00:47:20;12.70;;;9.53;;
18669;SDS011;9464;44.918;9.670;2022-09-27T00:49:52;17.90;;;10.40;;
18669;SDS011;9464;44.918;9.670;2022-09-27T00:52:24;18.10;;;10.80;;
18669;SDS011;9464;44.918;9.670;2022-09-27T00:54:56;16.10;;;11.07;;
18669;SDS011;9464;44.918;9.670;2022-09-27T00:57:30;14.50;;;10.17;;
18669;SDS011;9464;44.918;9.670;2022-09-27T01:00:00;17.37;;;10.53;;
18669;SDS011;9464;44.918;9.670;2022-09-27T01:02:32;14.47;;;10.53;;
18669;SDS011;9464;44.918;9.670;2022-09-27T01:05:02;14.50;;;11.63;;
18669;SDS011;9464;44.918;9.670;2022-09-27T01:07:31;19.90;;;12.63;;
18669;SDS011;9464;44.918;9.670;2022-09-27T01:10:00;17.50;;;12.67;;
18669;SDS011;9464;44.918;9.670;2022-09-27T01:12:30;19.77;;;13.50;;
18669;SDS011;9464;44.918;9.670;2022-09-27T01:15:08;16.33;;;11.93;;
18669;SDS011;9464;44.918;9.670;2022-09-27T01:17:46;18.33;;;13.57;;
18669;SDS011;9464;44.918;9.670;2022-09-27T01:20:41;22.30;;;14.47;;
18669;SDS011;9464;44.918;9.670;2022-09-27T01:23:42;17.17;;;12.00;;
18669;SDS011;9464;44.918;9.670;2022-09-27T01:26:24;17.93;;;11.83;;
18669;SDS011;9464;44.918;9.670;2022-09-27T01:29:12;16.73;;;11.43;;
18669;SDS011;9464;44.918;9.670;2022-09-27T01:31:54;17.40;;;12.50;;
18669;SDS011;9464;44.918;9.670;2022-09-27T01:34:31;16.07;;;11.43;;
18669;SDS011;9464;44.918;9.670;2022-09-27T01:37:09;16.90;;;11.93;;
18669;SDS011;9464;44.918;9.670;2022-09-27T01:39:45;19.27;;;12.53;;
18669;SDS011;9464;44.918;9.670;2022-09-27T01:42:20;17.87;;;13.03;;
18669;SDS011;9464;44.918;9.670;2022-09-27T01:44:53;22.83;;;14.43;;
18669;SDS011;9464;44.918;9.670;2022-09-27T01:47:27;20.30;;;14.80;;
18669;SDS011;9464;44.918;9.670;2022-09-27T01:50:02;19.77;;;14.23;;
18669;SDS011;9464;44.918;9.670;2022-09-27T01:52:34;21.10;;;13.30;;
18669;SDS011;9464;44.918;9.670;2022-09-27T01:55:08;18.90;;;13.07;;
18669;SDS011;9464;44.918;9.670;2022-09-27T01:57:42;19.97;;;13.40;;
18669;SDS011;9464;44.918;9.670;2022-09-27T02:00:13;16.73;;;13.13;;
18669;SDS011;9464;44.918;9.670;2022-09-27T02:02:45;18.53;;;13.90;;
18669;SDS011;9464;44.918;9.670;2022-09-27T02:05:16;19.50;;;13.30;;
18669;SDS011;9464;44.918;9.670;2022-09-27T02:07:51;17.53;;;13.10;;
18669;SDS011;9464;44.918;9.670;2022-09-27T02:10:23;19.50;;;13.00;;
18669;SDS011;9464;44.918;9.670;2022-09-27T02:12:57;16.23;;;12.13;;
18669;SDS011;9464;44.918;9.670;2022-09-27T02:15:32;19.63;;;13.27;;
18669;SDS011;9464;44.918;9.670;2022-09-27T02:18:16;23.13;;;12.80;;
18669;SDS011;9464;44.918;9.670;2022-09-27T02:20:50;16.97;;;12.93;;
18669;SDS011;9464;44.918;9.670;2022-09-27T02:23:24;17.53;;;12.77;;
18669;SDS011;9464;44.918;9.670;2022-09-27T02:26:02;20.33;;;14.53;;
18669;SDS011;9464;44.918;9.670;2022-09-27T02:28:34;18.90;;;14.07;;
18669;SDS011;9464;44.918;9.670;2022-09-27T02:31:06;21.33;;;13.23;;
18669;SDS011;9464;44.918;9.670;2022-09-27T02:33:37;21.03;;;13.47;;
18669;SDS011;9464;44.918;9.670;2022-09-27T02:36:09;20.10;;;13.93;;
18669;SDS011;9464;44.918;9.670;2022-09-27T02:38:38;19.80;;;13.47;;
18669;SDS011;9464;44.918;9.670;2022-09-27T02:41:11;20.47;;;13.13;;
18669;SDS011;9464;44.918;9.670;2022-09-27T02:43:40;19.27;;;13.30;;
18669;SDS011;9464;44.918;9.670;2022-09-27T02:46:15;20.53;;;13.57;;
18669;SDS011;9464;44.918;9.670;2022-09-27T02:49:02;20.83;;;14.97;;
18669;SDS011;9464;44.918;9.670;2022-09-27T02:51:47;20.97;;;14.23;;
18669;SDS011;9464;44.918;9.670;2022-09-27T02:54:24;18.07;;;13.40;;
18669;SDS011;9464;44.918;9.670;2022-09-27T02:56:59;19.47;;;13.33;;
18669;SDS011;9464;44.918;9.670;2022-09-27T02:59:40;19.77;;;12.90;;
18669;SDS011;9464;44.918;9.670;2022-09-27T03:02:18;16.63;;;12.23;;
18669;SDS011;9464;44.918;9.670;2022-09-27T03:04:59;15.77;;;11.07;;
18669;SDS011;9464;44.918;9.670;2022-09-27T03:07:31;15.77;;;10.83;;
18669;SDS011;9464;44.918;9.670;2022-09-27T03:10:00;14.17;;;10.77;;
18669;SDS011;9464;44.918;9.670;2022-09-27T03:12:28;16.23;;;11.40;;
18669;SDS011;9464;44.918;9.670;2022-09-27T03:14:57;14.50;;;9.90;;
18669;SDS011;9464;44.918;9.670;2022-09-27T03:17:26;12.03;;;9.23;;
18669;SDS011;9464;44.918;9.670;2022-09-27T03:19:55;12.03;;;8.27;;
18669;SDS011;9464;44.918;9.670;2022-09-27T03:22:24;12.30;;;8.23;;
18669;SDS011;9464;44.918;9.670;2022-09-27T03:24:52;11.87;;;7.90;;
18669;SDS011;9464;44.918;9.670;2022-09-27T03:27:21;11.70;;;7.57;;
18669;SDS011;9464;44.918;9.670;2022-09-27T03:29:49;11.27;;;7.13;;
18669;SDS011;9464;44.918;9.670;2022-09-27T03:32:17;9.50;;;6.67;;
18669;SDS011;9464;44.918;9.670;2022-09-27T03:34:46;9.23;;;6.53;;
18669;SDS011;9464;44.918;9.670;2022-09-27T03:37:14;11.37;;;6.90;;
18669;SDS011;9464;44.918;9.670;2022-09-27T03:39:43;9.10;;;6.90;;
18669;SDS011;9464;44.918;9.670;2022-09-27T03:42:12;9.67;;;6.90;;
18669;SDS011;9464;44.918;9.670;2022-09-27T03:44:40;10.63;;;7.53;;
18669;SDS011;9464;44.918;9.670;2022-09-27T03:47:08;10.73;;;7.10;;
18669;SDS011;9464;44.918;9.670;2022-09-27T03:49:36;10.87;;;7.30;;
18669;SDS011;9464;44.918;9.670;2022-09-27T03:52:04;10.60;;;7.30;;
18669;SDS011;9464;44.918;9.670;2022-09-27T03:54:33;10.47;;;6.53;;
18669;SDS011;9464;44.918;9.670;2022-09-27T03:57:02;8.07;;;6.27;;
18669;SDS011;9464;44.918;9.670;2022-09-27T03:59:31;10.23;;;6.83;;
18669;SDS011;9464;44.918;9.670;2022-09-27T04:01:59;9.60;;;6.27;;
18669;SDS011;9464;44.918;9.670;2022-09-27T04:04:27;9.40;;;6.13;;
18669;SDS011;9464;44.918;9.670;2022-09-27T04:06:56;10.13;;;6.87;;
18669;SDS011;9464;44.918;9.670;2022-09-27T04:09:25;9.77;;;6.17;;
18669;SDS011;9464;44.918;9.670;2022-09-27T04:11:53;10.30;;;6.20;;
18669;SDS011;9464;44.918;9.670;2022-09-27T04:14:22;11.00;;;7.30;;
18669;SDS011;9464;44.918;9.670;2022-09-27T04:16:51;10.03;;;6.67;;
18669;SDS011;9464;44.918;9.670;2022-09-27T04:19:19;10.20;;;6.90;;
18669;SDS011;9464;44.918;9.670;2022-09-27T04:21:47;10.67;;;7.50;;
18669;SDS011;9464;44.918;9.670;2022-09-27T04:24:15;10.87;;;7.90;;
18669;SDS011;9464;44.918;9.670;2022-09-27T04:26:43;11.30;;;8.10;;
18669;SDS011;9464;44.918;9.670;2022-09-27T04:29:12;12.43;;;8.67;;
18669;SDS011;9464;44.918;9.670;2022-09-27T04:31:42;18.20;;;9.60;;
18669;SDS011;9464;44.918;9.670;2022-09-27T04:34:10;14.13;;;9.80;;
18669;SDS011;9464;44.918;9.670;2022-09-27T04:36:39;14.83;;;9.97;;
18669;SDS011;9464;44.918;9.670;2022-09-27T04:39:06;16.70;;;11.20;;
18669;SDS011;9464;44.918;9.670;2022-09-27T04:41:35;15.57;;;10.23;;
18669;SDS011;9464;44.918;9.670;2022-09-27T04:44:04;22.47;;;13.53;;
18669;SDS011;9464;44.918;9.670;2022-09-27T04:46:32;14.10;;;8.87;;
18669;SDS011;9464;44.918;9.670;2022-09-27T04:49:02;13.70;;;9.17;;
18669;SDS011;9464;44.918;9.670;2022-09-27T04:51:30;13.93;;;9.77;;
18669;SDS011;9464;44.918;9.670;2022-09-27T04:53:58;15.13;;;9.87;;
18669;SDS011;9464;44.918;9.670;2022-09-27T04:56:27;15.43;;;9.70;;
18669;SDS011;9464;44.918;9.670;2022-09-27T04:58:55;13.10;;;9.23;;
18669;SDS011;9464;44.918;9.670;2022-09-27T05:01:24;12.97;;;9.50;;
18669;SDS011;9464;44.918;9.670;2022-09-27T05:03:52;34.40;;;23.60;;
18669;SDS011;9464;44.918;9.670;2022-09-27T05:06:21;29.10;;;19.37;;
18669;SDS011;9464;44.918;9.670;2022-09-27T05:08:50;15.37;;;10.63;;
18669;SDS011;9464;44.918;9.670;2022-09-27T05:11:18;16.37;;;10.90;;
18669;SDS011;9464;44.918;9.670;2022-09-27T05:13:47;18.00;;;10.27;;
18669;SDS011;9464;44.918;9.670;2022-09-27T05:16:15;18.83;;;11.00;;
18669;SDS011;9464;44.918;9.670;2022-09-27T05:18:45;18.37;;;12.13;;
18669;SDS011;9464;44.918;9.670;2022-09-27T05:21:13;17.23;;;11.13;;
18669;SDS011;9464;44.918;9.670;2022-09-27T05:23:43;16.70;;;10.20;;
18669;SDS011;9464;44.918;9.670;2022-09-27T05:26:13;15.50;;;11.17;;
18669;SDS011;9464;44.918;9.670;2022-09-27T05:28:41;15.17;;;10.43;;
18669;SDS011;9464;44.918;9.670;2022-09-27T05:31:12;16.57;;;10.67;;
18669;SDS011;9464;44.918;9.670;2022-09-27T05:33:41;14.23;;;10.63;;
18669;SDS011;9464;44.918;9.670;2022-09-27T05:36:09;15.20;;;10.13;;
18669;SDS011;9464;44.918;9.670;2022-09-27T05:38:38;17.67;;;12.23;;
18669;SDS011;9464;44.918;9.670;2022-09-27T05:41:09;20.13;;;13.30;;
18669;SDS011;9464;44.918;9.670;2022-09-27T05:43:37;16.13;;;12.00;;
18669;SDS011;9464;44.918;9.670;2022-09-27T05:46:05;21.20;;;13.20;;
18669;SDS011;9464;44.918;9.670;2022-09-27T05:48:34;18.37;;;12.97;;
18669;SDS011;9464;44.918;9.670;2022-09-27T05:51:03;21.50;;;14.83;;
18669;SDS011;9464;44.918;9.670;2022-09-27T05:53:31;21.70;;;15.17;;
18669;SDS011;9464;44.918;9.670;2022-09-27T05:56:00;23.57;;;14.87;;
18669;SDS011;9464;44.918;9.670;2022-09-27T05:58:30;23.57;;;17.13;;
18669;SDS011;9464;44.918;9.670;2022-09-27T06:00:59;24.23;;;15.73;;
18669;SDS011;9464;44.918;9.670;2022-09-27T06:03:28;24.03;;;17.00;;
18669;SDS011;9464;44.918;9.670;2022-09-27T06:05:56;28.33;;;17.27;;
18669;SDS011;9464;44.918;9.670;2022-09-27T06:08:29;25.30;;;18.10;;
18669;SDS011;9464;44.918;9.670;2022-09-27T06:11:00;27.60;;;18.17;;
18669;SDS011;9464;44.918;9.670;2022-09-27T06:13:32;26.00;;;17.73;;
18669;SDS011;9464;44.918;9.670;2022-09-27T06:16:01;25.63;;;16.17;;
18669;SDS011;9464;44.918;9.670;2022-09-27T06:18:30;23.17;;;15.63;;
18669;SDS011;9464;44.918;9.670;2022-09-27T06:20:58;17.47;;;11.50;;
18669;SDS011;9464;44.918;9.670;2022-09-27T06:23:27;18.37;;;11.63;;
18669;SDS011;9464;44.918;9.670;2022-09-27T06:25:59;14.70;;;9.77;;
18669;SDS011;9464;44.918;9.670;2022-09-27T06:28:28;13.97;;;9.10;;
18669;SDS011;9464;44.918;9.670;2022-09-27T06:30:58;15.13;;;9.30;;
18669;SDS011;9464;44.918;9.670;2022-09-27T06:33:26;15.60;;;9.33;;
18669;SDS011;9464;44.918;9.670;2022-09-27T06:35:55;17.43;;;10.60;;
18669;SDS011;9464;44.918;9.670;2022-09-27T06:38:23;19.90;;;12.03;;
18669;SDS011;9464;44.918;9.670;2022-09-27T06:40:51;17.97;;;12.00;;
18669;SDS011;9464;44.918;9.670;2022-09-27T06:43:23;22.23;;;13.53;;
18669;SDS011;9464;44.918;9.670;2022-09-27T06:45:51;20.30;;;14.40;;
18669;SDS011;9464;44.918;9.670;2022-09-27T06:48:21;23.33;;;16.10;;
18669;SDS011;9464;44.918;9.670;2022-09-27T06:50:50;21.80;;;15.17;;
18669;SDS011;9464;44.918;9.670;2022-09-27T06:53:18;25.13;;;16.57;;
18669;SDS011;9464;44.918;9.670;2022-09-27T06:55:46;24.33;;;16.73;;
18669;SDS011;9464;44.918;9.670;2022-09-27T06:58:16;22.23;;;15.67;;
18669;SDS011;9464;44.918;9.670;2022-09-27T07:01:02;23.53;;;15.73;;
18669;SDS011;9464;44.918;9.670;2022-09-27T07:03:32;24.63;;;16.50;;
18669;SDS011;9464;44.918;9.670;2022-09-27T07:06:06;24.27;;;16.37;;
18669;SDS011;9464;44.918;9.670;2022-09-27T07:08:42;25.60;;;16.63;;
18669;SDS011;9464;44.918;9.670;2022-09-27T07:11:10;25.07;;;16.80;;
18669;SDS011;9464;44.918;9.670;2022-09-27T07:13:40;24.37;;;16.57;;
18669;SDS011;9464;44.918;9.670;2022-09-27T07:16:09;23.87;;;16.37;;
18669;SDS011;9464;44.918;9.670;2022-09-27T07:18:41;23.97;;;16.10;;
18669;SDS011;9464;44.918;9.670;2022-09-27T07:21:09;26.67;;;17.93;;
18669;SDS011;9464;44.918;9.670;2022-09-27T07:23:38;24.93;;;17.47;;
18669;SDS011;9464;44.918;9.670;2022-09-27T07:26:06;24.30;;;16.10;;
18669;SDS011;9464;44.918;9.670;2022-09-27T07:28:35;26.30;;;18.43;;
18669;SDS011;9464;44.918;9.670;2022-09-27T07:31:07;31.90;;;17.40;;
18669;SDS011;9464;44.918;9.670;2022-09-27T07:33:36;23.70;;;15.80;;
18669;SDS011;9464;44.918;9.670;2022-09-27T07:36:11;23.60;;;15.20;;
18669;SDS011;9464;44.918;9.670;2022-09-27T07:38:40;25.53;;;16.80;;
18669;SDS011;9464;44.918;9.670;2022-09-27T07:41:09;21.77;;;15.70;;
18669;SDS011;9464;44.918;9.670;2022-09-27T07:43:39;22.63;;;15.87;;
18669;SDS011;9464;44.918;9.670;2022-09-27T07:46:09;23.80;;;16.00;;
18669;SDS011;9464;44.918;9.670;2022-09-27T07:48:39;26.57;;;17.47;;
18669;SDS011;9464;44.918;9.670;2022-09-27T07:51:07;25.53;;;17.00;;
18669;SDS011;9464;44.918;9.670;2022-09-27T07:53:38;24.43;;;16.20;;
18669;SDS011;9464;44.918;9.670;2022-09-27T07:56:07;24.47;;;15.53;;
18669;SDS011;9464;44.918;9.670;2022-09-27T07:58:35;25.90;;;17.07;;
18669;SDS011;9464;44.918;9.670;2022-09-27T08:01:03;24.70;;;16.90;;
18669;SDS011;9464;44.918;9.670;2022-09-27T08:03:32;23.57;;;16.43;;
18669;SDS011;9464;44.918;9.670;2022-09-27T08:06:01;25.60;;;15.53;;
18669;SDS011;9464;44.918;9.670;2022-09-27T08:08:30;28.10;;;16.10;;
18669;SDS011;9464;44.918;9.670;2022-09-27T08:11:00;21.83;;;15.77;;
18669;SDS011;9464;44.918;9.670;2022-09-27T08:13:28;23.43;;;16.53;;
18669;SDS011;9464;44.918;9.670;2022-09-27T08:16:00;26.90;;;16.53;;
18669;SDS011;9464;44.918;9.670;2022-09-27T08:18:29;24.33;;;15.37;;
18669;SDS011;9464;44.918;9.670;2022-09-27T08:20:57;22.23;;;15.33;;
18669;SDS011;9464;44.918;9.670;2022-09-27T08:23:26;25.43;;;16.13;;
18669;SDS011;9464;44.918;9.670;2022-09-27T08:25:54;23.23;;;15.90;;
18669;SDS011;9464;44.918;9.670;2022-09-27T08:28:25;25.53;;;16.23;;
18669;SDS011;9464;44.918;9.670;2022-09-27T08:30:53;24.90;;;15.00;;
18669;SDS011;9464;44.918;9.670;2022-09-27T08:33:24;23.63;;;15.50;;
18669;SDS011;9464;44.918;9.670;2022-09-27T08:35:58;22.97;;;16.03;;
18669;SDS011;9464;44.918;9.670;2022-09-27T08:38:27;24.23;;;14.73;;
18669;SDS011;9464;44.918;9.670;2022-09-27T08:40:56;20.27;;;13.10;;
18669;SDS011;9464;44.918;9.670;2022-09-27T08:43:35;21.67;;;14.23;;
18669;SDS011;9464;44.918;9.670;2022-09-27T08:46:11;22.70;;;12.80;;
18669;SDS011;9464;44.918;9.670;2022-09-27T08:49:04;21.80;;;12.20;;
18669;SDS011;9464;44.918;9.670;2022-09-27T08:51:36;17.70;;;12.27;;
18669;SDS011;9464;44.918;9.670;2022-09-27T08:54:05;14.57;;;9.77;;
18669;SDS011;9464;44.918;9.670;2022-09-27T08:56:38;16.47;;;10.60;;
18669;SDS011;9464;44.918;9.670;2022-09-27T08:59:09;16.23;;;10.47;;
18669;SDS011;9464;44.918;9.670;2022-09-27T09:01:40;14.07;;;9.40;;
18669;SDS011;9464;44.918;9.670;2022-09-27T09:04:09;16.13;;;11.40;;
18669;SDS011;9464;44.918;9.670;2022-09-27T09:06:39;18.77;;;12.63;;
18669;SDS011;9464;44.918;9.670;2022-09-27T09:09:16;16.60;;;11.77;;
18669;SDS011;9464;44.918;9.670;2022-09-27T09:11:56;12.50;;;8.10;;
18669;SDS011;9464;44.918;9.670;2022-09-27T09:14:57;15.93;;;10.47;;
18669;SDS011;9464;44.918;9.670;2022-09-27T09:17:42;20.33;;;12.07;;
18669;SDS011;9464;44.918;9.670;2022-09-27T09:20:25;15.23;;;10.47;;
18669;SDS011;9464;44.918;9.670;2022-09-27T09:23:07;15.97;;;11.07;;
18669;SDS011;9464;44.918;9.670;2022-09-27T09:25:49;15.87;;;10.67;;
18669;SDS011;9464;44.918;9.670;2022-09-27T09:28:28;10.80;;;7.63;;
18669;SDS011;9464;44.918;9.670;2022-09-27T09:31:07;10.43;;;7.00;;
18669;SDS011;9464;44.918;9.670;2022-09-27T09:33:43;9.57;;;7.40;;
18669;SDS011;9464;44.918;9.670;2022-09-27T09:36:18;12.93;;;8.43;;
18669;SDS011;9464;44.918;9.670;2022-09-27T09:38:52;12.37;;;8.57;;
18669;SDS011;9464;44.918;9.670;2022-09-27T09:41:25;11.57;;;8.00;;
18669;SDS011;9464;44.918;9.670;2022-09-27T09:43:59;13.43;;;6.90;;
18669;SDS011;9464;44.918;9.670;2022-09-27T09:46:32;9.53;;;6.30;;
18669;SDS011;9464;44.918;9.670;2022-09-27T09:49:12;7.47;;;5.40;;
18669;SDS011;9464;44.918;9.670;2022-09-27T09:51:45;9.90;;;6.83;;
18669;SDS011;9464;44.918;9.670;2022-09-27T09:54:19;10.10;;;6.30;;
18669;SDS011;9464;44.918;9.670;2022-09-27T09:56:54;8.37;;;5.87;;
18669;SDS011;9464;44.918;9.670;2022-09-27T09:59:28;9.20;;;6.50;;
18669;SDS011;9464;44.918;9.670;2022-09-27T10:02:17;8.40;;;5.77;;
18669;SDS011;9464;44.918;9.670;2022-09-27T10:04:52;9.07;;;6.17;;
18669;SDS011;9464;44.918;9.670;2022-09-27T10:07:23;11.03;;;5.90;;
18669;SDS011;9464;44.918;9.670;2022-09-27T10:09:52;8.60;;;6.03;;
18669;SDS011;9464;44.918;9.670;2022-09-27T10:12:23;9.00;;;5.50;;
18669;SDS011;9464;44.918;9.670;2022-09-27T10:14:52;8.27;;;6.10;;
18669;SDS011;9464;44.918;9.670;2022-09-27T10:17:24;7.03;;;4.80;;
18669;SDS011;9464;44.918;9.670;2022-09-27T10:20:02;4.83;;;4.30;;
18669;SDS011;9464;44.918;9.670;2022-09-27T10:22:33;7.47;;;5.30;;
18669;SDS011;9464;44.918;9.670;2022-09-27T10:25:05;7.67;;;5.00;;
18669;SDS011;9464;44.918;9.670;2022-09-27T10:27:37;7.70;;;4.93;;
18669;SDS011;9464;44.918;9.670;2022-09-27T10:30:19;9.87;;;5.93;;
18669;SDS011;9464;44.918;9.670;2022-09-27T10:32:51;7.47;;;5.57;;
18669;SDS011;9464;44.918;9.670;2022-09-27T10:35:33;6.60;;;5.13;;
18669;SDS011;9464;44.918;9.670;2022-09-27T10:38:20;10.37;;;5.70;;
18669;SDS011;9464;44.918;9.670;2022-09-27T10:40:50;11.43;;;5.30;;
18669;SDS011;9464;44.918;9.670;2022-09-27T10:43:25;9.77;;;6.03;;
18669;SDS011;9464;44.918;9.670;2022-09-27T10:46:05;9.00;;;6.60;;
18669;SDS011;9464;44.918;9.670;2022-09-27T10:48:40;11.50;;;6.20;;
18669;SDS011;9464;44.918;9.670;2022-09-27T10:51:23;11.47;;;6.33;;
18669;SDS011;9464;44.918;9.670;2022-09-27T10:53:55;8.37;;;5.27;;
18669;SDS011;9464;44.918;9.670;2022-09-27T10:56:27;6.10;;;4.73;;
18669;SDS011;9464;44.918;9.670;2022-09-27T10:58:56;8.07;;;4.77;;
18669;SDS011;9464;44.918;9.670;2022-09-27T11:01:26;9.07;;;5.83;;
18669;SDS011;9464;44.918;9.670;2022-09-27T11:04:15;8.60;;;5.93;;
18669;SDS011;9464;44.918;9.670;2022-09-27T11:06:47;11.53;;;5.47;;
18669;SDS011;9464;44.918;9.670;2022-09-27T11:09:17;6.23;;;5.23;;
18669;SDS011;9464;44.918;9.670;2022-09-27T11:11:49;7.00;;;5.27;;
18669;SDS011;9464;44.918;9.670;2022-09-27T11:14:19;9.77;;;5.67;;
18669;SDS011;9464;44.918;9.670;2022-09-27T11:16:53;9.93;;;5.70;;
18669;SDS011;9464;44.918;9.670;2022-09-27T11:19:42;7.13;;;4.60;;
18669;SDS011;9464;44.918;9.670;2022-09-27T11:22:25;5.13;;;4.00;;
18669;SDS011;9464;44.918;9.670;2022-09-27T11:25:09;7.43;;;4.90;;
18669;SDS011;9464;44.918;9.670;2022-09-27T11:27:50;7.00;;;4.83;;
18669;SDS011;9464;44.918;9.670;2022-09-27T11:30:31;7.87;;;4.70;;
18669;SDS011;9464;44.918;9.670;2022-09-27T11:36:19;5.13;;;3.10;;
18669;SDS011;9464;44.918;9.670;2022-09-27T11:38:59;3.20;;;2.37;;
18669;SDS011;9464;44.918;9.670;2022-09-27T11:41:36;4.70;;;3.13;;
18669;SDS011;9464;44.918;9.670;2022-09-27T11:44:18;4.93;;;2.57;;
18669;SDS011;9464;44.918;9.670;2022-09-27T11:47:08;2.80;;;2.30;;
18669;SDS011;9464;44.918;9.670;2022-09-27T11:49:49;2.97;;;1.60;;
18669;SDS011;9464;44.918;9.670;2022-09-27T11:52:43;5.63;;;2.10;;
18669;SDS011;9464;44.918;9.670;2022-09-27T11:55:25;5.07;;;2.27;;
18669;SDS011;9464;44.918;9.670;2022-09-27T11:58:03;2.73;;;2.23;;
18669;SDS011;9464;44.918;9.670;2022-09-27T12:00:41;6.17;;;2.97;;
18669;SDS011;9464;44.918;9.670;2022-09-27T12:03:37;3.07;;;2.40;;
18669;SDS011;9464;44.918;9.670;2022-09-27T12:06:15;2.27;;;1.37;;
18669;SDS011;9464;44.918;9.670;2022-09-27T12:08:50;4.10;;;1.70;;
18669;SDS011;9464;44.918;9.670;2022-09-27T12:11:28;1.53;;;1.43;;
18669;SDS011;9464;44.918;9.670;2022-09-27T12:14:03;1.63;;;1.40;;
18669;SDS011;9464;44.918;9.670;2022-09-27T12:16:33;2.97;;;1.23;;
18669;SDS011;9464;44.918;9.670;2022-09-27T12:19:08;1.47;;;1.37;;
18669;SDS011;9464;44.918;9.670;2022-09-27T12:21:42;2.07;;;1.40;;
18669;SDS011;9464;44.918;9.670;2022-09-27T12:24:14;1.40;;;1.00;;
18669;SDS011;9464;44.918;9.670;2022-09-27T12:26:46;2.00;;;1.33;;
18669;SDS011;9464;44.918;9.670;2022-09-27T12:29:18;1.20;;;1.10;;
18669;SDS011;9464;44.918;9.670;2022-09-27T12:31:50;3.80;;;1.13;;
18669;SDS011;9464;44.918;9.670;2022-09-27T12:34:28;1.40;;;1.30;;
18669;SDS011;9464;44.918;9.670;2022-09-27T12:37:04;1.27;;;1.17;;
18669;SDS011;9464;44.918;9.670;2022-09-27T12:39:45;2.53;;;1.40;;
18669;SDS011;9464;44.918;9.670;2022-09-27T12:42:19;1.43;;;1.17;;
18669;SDS011;9464;44.918;9.670;2022-09-27T12:44:50;1.43;;;1.33;;
18669;SDS011;9464;44.918;9.670;2022-09-27T12:47:23;1.33;;;1.23;;
18669;SDS011;9464;44.918;9.670;2022-09-27T12:50:11;1.63;;;1.10;;
18669;SDS011;9464;44.918;9.670;2022-09-27T12:52:42;1.97;;;1.40;;
18669;SDS011;9464;44.918;9.670;2022-09-27T12:55:19;1.30;;;1.20;;
18669;SDS011;9464;44.918;9.670;2022-09-27T13:01:14;1.93;;;1.50;;
18669;SDS011;9464;44.918;9.670;2022-09-27T13:03:54;2.03;;;1.63;;
18669;SDS011;9464;44.918;9.670;2022-09-27T13:06:57;2.10;;;1.90;;
18669;SDS011;9464;44.918;9.670;2022-09-27T13:09:43;1.70;;;1.60;;
18669;SDS011;9464;44.918;9.670;2022-09-27T13:12:25;1.50;;;1.40;;
18669;SDS011;9464;44.918;9.670;2022-09-27T13:14:59;3.73;;;2.00;;
18669;SDS011;9464;44.918;9.670;2022-09-27T13:26:42;3.93;;;2.27;;
18669;SDS011;9464;44.918;9.670;2022-09-27T13:29:31;2.73;;;1.47;;
18669;SDS011;9464;44.918;9.670;2022-09-27T13:34:44;2.53;;;1.60;;
18669;SDS011;9464;44.918;9.670;2022-09-27T13:40:21;2.87;;;1.43;;
18669;SDS011;9464;44.918;9.670;2022-09-27T13:43:04;3.87;;;1.67;;
18669;SDS011;9464;44.918;9.670;2022-09-27T13:45:55;2.03;;;1.30;;
18669;SDS011;9464;44.918;9.670;2022-09-27T13:48:27;1.43;;;1.33;;
18669;SDS011;9464;44.918;9.670;2022-09-27T13:51:04;3.20;;;1.60;;
18669;SDS011;9464;44.918;9.670;2022-09-27T13:53:50;2.73;;;1.30;;
18669;SDS011;9464;44.918;9.670;2022-09-27T13:59:18;1.40;;;1.30;;
18669;SDS011;9464;44.918;9.670;2022-09-27T14:01:53;2.57;;;1.53;;
18669;SDS011;9464;44.918;9.670;2022-09-27T14:04:27;6.40;;;1.70;;
18669;SDS011;9464;44.918;9.670;2022-09-27T14:07:00;2.23;;;1.67;;
18669;SDS011;9464;44.918;9.670;2022-09-27T14:09:31;4.87;;;1.80;;
18669;SDS011;9464;44.918;9.670;2022-09-27T14:12:02;4.97;;;2.00;;
18669;SDS011;9464;44.918;9.670;2022-09-27T14:14:36;3.67;;;1.80;;
18669;SDS011;9464;44.918;9.670;2022-09-27T14:17:09;3.17;;;1.40;;
18669;SDS011;9464;44.918;9.670;2022-09-27T14:19:38;3.43;;;1.70;;
18669;SDS011;9464;44.918;9.670;2022-09-27T14:22:10;2.00;;;1.50;;
18669;SDS011;9464;44.918;9.670;2022-09-27T14:24:43;1.63;;;1.50;;
18669;SDS011;9464;44.918;9.670;2022-09-27T14:27:14;2.90;;;1.70;;
18669;SDS011;9464;44.918;9.670;2022-09-27T14:29:46;2.63;;;1.60;;
18669;SDS011;9464;44.918;9.670;2022-09-27T14:32:17;5.33;;;1.50;;
18669;SDS011;9464;44.918;9.670;2022-09-27T14:35:01;2.00;;;1.57;;
18669;SDS011;9464;44.918;9.670;2022-09-27T14:37:31;1.97;;;1.30;;
18669;SDS011;9464;44.918;9.670;2022-09-27T14:40:01;1.73;;;1.33;;
18669;SDS011;9464;44.918;9.670;2022-09-27T14:42:34;2.73;;;1.37;;
18669;SDS011;9464;44.918;9.670;2022-09-27T14:45:05;1.40;;;1.30;;
18669;SDS011;9464;44.918;9.670;2022-09-27T14:47:47;1.60;;;1.50;;
18669;SDS011;9464;44.918;9.670;2022-09-27T14:50:18;2.90;;;1.40;;
18669;SDS011;9464;44.918;9.670;2022-09-27T14:52:48;2.10;;;1.33;;
18669;SDS011;9464;44.918;9.670;2022-09-27T14:55:21;2.40;;;1.47;;
18669;SDS011;9464;44.918;9.670;2022-09-27T14:57:51;2.03;;;1.47;;
18669;SDS011;9464;44.918;9.670;2022-09-27T15:00:21;4.30;;;1.33;;
18669;SDS011;9464;44.918;9.670;2022-09-27T15:02:53;3.50;;;1.47;;
18669;SDS011;9464;44.918;9.670;2022-09-27T15:05:25;1.80;;;1.30;;
18669;SDS011;9464;44.918;9.670;2022-09-27T15:07:56;1.70;;;1.30;;
18669;SDS011;9464;44.918;9.670;2022-09-27T15:10:27;1.40;;;1.30;;
18669;SDS011;9464;44.918;9.670;2022-09-27T15:12:57;4.13;;;1.40;;
18669;SDS011;9464;44.918;9.670;2022-09-27T15:15:29;1.53;;;1.30;;
18669;SDS011;9464;44.918;9.670;2022-09-27T15:18:01;1.33;;;1.23;;
18669;SDS011;9464;44.918;9.670;2022-09-27T15:20:31;2.30;;;1.40;;
18669;SDS011;9464;44.918;9.670;2022-09-27T15:23:01;1.70;;;1.37;;
18669;SDS011;9464;44.918;9.670;2022-09-27T15:25:31;4.23;;;1.33;;
18669;SDS011;9464;44.918;9.670;2022-09-27T15:28:02;1.90;;;0.97;;
18669;SDS011;9464;44.918;9.670;2022-09-27T15:30:33;3.70;;;1.07;;
18669;SDS011;9464;44.918;9.670;2022-09-27T15:33:05;1.30;;;1.20;;
18669;SDS011;9464;44.918;9.670;2022-09-27T15:35:47;1.43;;;1.33;;
18669;SDS011;9464;44.918;9.670;2022-09-27T15:38:22;3.77;;;1.30;;
18669;SDS011;9464;44.918;9.670;2022-09-27T15:40:56;3.70;;;1.20;;
18669;SDS011;9464;44.918;9.670;2022-09-27T15:43:27;1.70;;;1.10;;
18669;SDS011;9464;44.918;9.670;2022-09-27T15:45:57;2.20;;;1.30;;
18669;SDS011;9464;44.918;9.670;2022-09-27T15:48:30;1.30;;;1.20;;
18669;SDS011;9464;44.918;9.670;2022-09-27T15:51:00;3.37;;;1.33;;